sensor_id;sensor_type;location;lat;lon;timestamp;P1;durP1;ratioP1;P2;durP2;ratioP2
31836;SDS011;18401;49.344;6.240;2023-02-22T00:01:14;27.52;;;14.88;;
31836;SDS011;18401;49.344;6.240;2023-02-22T00:03:52;41.05;;;16.67;;
31836;SDS011;18401;49.344;6.240;2023-02-22T00:06:19;31.88;;;15.57;;
31836;SDS011;18401;49.344;6.240;2023-02-22T00:08:47;36.13;;;18.17;;
31836;SDS011;18401;49.344;6.240;2023-02-22T00:11:16;33.28;;;15.55;;
31836;SDS011;18401;49.344;6.240;2023-02-22T00:13:42;39.92;;;17.27;;
31836;SDS011;18401;49.344;6.240;2023-02-22T00:16:09;40.50;;;16.45;;
31836;SDS011;18401;49.344;6.240;2023-02-22T00:18:40;31.70;;;14.93;;
31836;SDS011;18401;49.344;6.240;2023-02-22T00:21:06;37.58;;;15.55;;
31836;SDS011;18401;49.344;6.240;2023-02-22T00:23:34;30.83;;;14.77;;
31836;SDS011;18401;49.344;6.240;2023-02-22T00:26:04;36.85;;;17.55;;
31836;SDS011;18401;49.344;6.240;2023-02-22T00:28:34;31.58;;;16.35;;
31836;SDS011;18401;49.344;6.240;2023-02-22T00:31:01;33.75;;;15.25;;
31836;SDS011;18401;49.344;6.240;2023-02-22T00:33:29;33.67;;;16.52;;
31836;SDS011;18401;49.344;6.240;2023-02-22T00:35:55;30.40;;;15.40;;
31836;SDS011;18401;49.344;6.240;2023-02-22T00:38:21;31.08;;;15.25;;
31836;SDS011;18401;49.344;6.240;2023-02-22T00:40:46;33.58;;;15.55;;
31836;SDS011;18401;49.344;6.240;2023-02-22T00:43:12;30.15;;;15.07;;
31836;SDS011;18401;49.344;6.240;2023-02-22T00:45:38;34.75;;;16.33;;
31836;SDS011;18401;49.344;6.240;2023-02-22T00:48:05;31.95;;;15.05;;
31836;SDS011;18401;49.344;6.240;2023-02-22T00:50:32;32.05;;;15.85;;
31836;SDS011;18401;49.344;6.240;2023-02-22T00:52:59;30.58;;;14.48;;
31836;SDS011;18401;49.344;6.240;2023-02-22T00:55:31;34.25;;;14.98;;
31836;SDS011;18401;49.344;6.240;2023-02-22T00:57:59;29.92;;;14.55;;
31836;SDS011;18401;49.344;6.240;2023-02-22T01:00:31;31.50;;;14.63;;
31836;SDS011;18401;49.344;6.240;2023-02-22T01:03:01;29.50;;;14.35;;
31836;SDS011;18401;49.344;6.240;2023-02-22T01:05:28;35.92;;;14.98;;
31836;SDS011;18401;49.344;6.240;2023-02-22T01:07:55;36.47;;;15.50;;
31836;SDS011;18401;49.344;6.240;2023-02-22T01:10:23;29.02;;;14.32;;
31836;SDS011;18401;49.344;6.240;2023-02-22T01:12:50;33.40;;;13.73;;
31836;SDS011;18401;49.344;6.240;2023-02-22T01:15:18;29.00;;;14.25;;
31836;SDS011;18401;49.344;6.240;2023-02-22T01:17:46;32.38;;;13.27;;
31836;SDS011;18401;49.344;6.240;2023-02-22T01:20:13;30.15;;;13.65;;
31836;SDS011;18401;49.344;6.240;2023-02-22T01:22:39;23.55;;;12.18;;
31836;SDS011;18401;49.344;6.240;2023-02-22T01:25:15;32.75;;;14.40;;
31836;SDS011;18401;49.344;6.240;2023-02-22T01:27:46;30.35;;;13.10;;
31836;SDS011;18401;49.344;6.240;2023-02-22T01:30:14;28.80;;;13.23;;
31836;SDS011;18401;49.344;6.240;2023-02-22T01:32:41;25.42;;;12.70;;
31836;SDS011;18401;49.344;6.240;2023-02-22T01:35:09;25.73;;;12.63;;
31836;SDS011;18401;49.344;6.240;2023-02-22T01:37:37;27.77;;;13.43;;
31836;SDS011;18401;49.344;6.240;2023-02-22T01:40:04;22.23;;;11.25;;
31836;SDS011;18401;49.344;6.240;2023-02-22T01:42:32;27.45;;;12.50;;
31836;SDS011;18401;49.344;6.240;2023-02-22T01:48:05;22.55;;;11.45;;
31836;SDS011;18401;49.344;6.240;2023-02-22T01:50:34;23.88;;;11.57;;
31836;SDS011;18401;49.344;6.240;2023-02-22T01:53:06;26.35;;;12.85;;
31836;SDS011;18401;49.344;6.240;2023-02-22T01:55:34;27.67;;;11.57;;
31836;SDS011;18401;49.344;6.240;2023-02-22T01:58:00;27.88;;;12.90;;
31836;SDS011;18401;49.344;6.240;2023-02-22T02:00:28;24.25;;;11.95;;
31836;SDS011;18401;49.344;6.240;2023-02-22T02:02:59;24.75;;;12.43;;
31836;SDS011;18401;49.344;6.240;2023-02-22T02:05:30;27.08;;;12.27;;
31836;SDS011;18401;49.344;6.240;2023-02-22T02:08:00;29.58;;;13.23;;
31836;SDS011;18401;49.344;6.240;2023-02-22T02:10:42;25.27;;;13.27;;
31836;SDS011;18401;49.344;6.240;2023-02-22T02:13:08;23.67;;;12.73;;
31836;SDS011;18401;49.344;6.240;2023-02-22T02:15:34;24.48;;;12.93;;
31836;SDS011;18401;49.344;6.240;2023-02-22T02:18:01;33.15;;;13.93;;
31836;SDS011;18401;49.344;6.240;2023-02-22T02:26:12;33.08;;;14.52;;
31836;SDS011;18401;49.344;6.240;2023-02-22T02:37:11;33.55;;;13.70;;
31836;SDS011;18401;49.344;6.240;2023-02-22T02:39:54;39.78;;;14.77;;
31836;SDS011;18401;49.344;6.240;2023-02-22T02:42:24;32.08;;;14.50;;
31836;SDS011;18401;49.344;6.240;2023-02-22T02:45:04;25.90;;;11.80;;
31836;SDS011;18401;49.344;6.240;2023-02-22T02:47:41;33.40;;;15.73;;
31836;SDS011;18401;49.344;6.240;2023-02-22T02:50:17;34.00;;;14.95;;
31836;SDS011;18401;49.344;6.240;2023-02-22T02:52:47;28.90;;;14.60;;
31836;SDS011;18401;49.344;6.240;2023-02-22T02:55:14;28.70;;;13.80;;
31836;SDS011;18401;49.344;6.240;2023-02-22T02:57:42;28.63;;;13.73;;
31836;SDS011;18401;49.344;6.240;2023-02-22T03:00:09;31.77;;;14.35;;
31836;SDS011;18401;49.344;6.240;2023-02-22T03:05:46;34.92;;;14.43;;
31836;SDS011;18401;49.344;6.240;2023-02-22T03:08:33;38.35;;;15.10;;
31836;SDS011;18401;49.344;6.240;2023-02-22T03:11:15;29.50;;;13.85;;
31836;SDS011;18401;49.344;6.240;2023-02-22T03:13:47;43.97;;;16.85;;
31836;SDS011;18401;49.344;6.240;2023-02-22T03:24:24;41.85;;;17.65;;
31836;SDS011;18401;49.344;6.240;2023-02-22T03:29:46;41.03;;;18.23;;
31836;SDS011;18401;49.344;6.240;2023-02-22T03:32:15;39.42;;;17.63;;
31836;SDS011;18401;49.344;6.240;2023-02-22T03:34:50;42.60;;;18.55;;
31836;SDS011;18401;49.344;6.240;2023-02-22T03:37:26;35.60;;;15.73;;
31836;SDS011;18401;49.344;6.240;2023-02-22T03:39:54;32.60;;;15.80;;
31836;SDS011;18401;49.344;6.240;2023-02-22T03:42:24;31.48;;;14.77;;
31836;SDS011;18401;49.344;6.240;2023-02-22T03:44:58;34.60;;;14.60;;
31836;SDS011;18401;49.344;6.240;2023-02-22T03:47:33;32.35;;;15.07;;
31836;SDS011;18401;49.344;6.240;2023-02-22T03:50:25;34.80;;;15.95;;
31836;SDS011;18401;49.344;6.240;2023-02-22T03:52:53;29.65;;;14.23;;
31836;SDS011;18401;49.344;6.240;2023-02-22T03:55:23;43.40;;;16.65;;
31836;SDS011;18401;49.344;6.240;2023-02-22T03:57:50;36.63;;;16.92;;
31836;SDS011;18401;49.344;6.240;2023-02-22T04:00:21;41.30;;;17.95;;
31836;SDS011;18401;49.344;6.240;2023-02-22T04:02:48;58.63;;;20.20;;
31836;SDS011;18401;49.344;6.240;2023-02-22T04:05:14;58.92;;;21.40;;
31836;SDS011;18401;49.344;6.240;2023-02-22T04:07:41;57.70;;;22.23;;
31836;SDS011;18401;49.344;6.240;2023-02-22T04:10:08;75.95;;;23.58;;
31836;SDS011;18401;49.344;6.240;2023-02-22T04:12:34;54.03;;;22.40;;
31836;SDS011;18401;49.344;6.240;2023-02-22T04:15:01;39.78;;;17.05;;
31836;SDS011;18401;49.344;6.240;2023-02-22T04:17:27;39.88;;;17.80;;
31836;SDS011;18401;49.344;6.240;2023-02-22T04:19:53;41.92;;;16.95;;
31836;SDS011;18401;49.344;6.240;2023-02-22T04:22:18;37.00;;;16.95;;
31836;SDS011;18401;49.344;6.240;2023-02-22T04:24:44;35.30;;;16.20;;
31836;SDS011;18401;49.344;6.240;2023-02-22T04:27:10;31.13;;;16.02;;
31836;SDS011;18401;49.344;6.240;2023-02-22T04:29:36;35.08;;;15.18;;
31836;SDS011;18401;49.344;6.240;2023-02-22T04:32:01;40.42;;;17.83;;
31836;SDS011;18401;49.344;6.240;2023-02-22T04:34:27;33.55;;;15.77;;
31836;SDS011;18401;49.344;6.240;2023-02-22T04:36:53;42.42;;;16.83;;
31836;SDS011;18401;49.344;6.240;2023-02-22T04:39:18;33.75;;;16.95;;
31836;SDS011;18401;49.344;6.240;2023-02-22T04:41:44;46.45;;;19.85;;
31836;SDS011;18401;49.344;6.240;2023-02-22T04:44:11;51.30;;;20.98;;
31836;SDS011;18401;49.344;6.240;2023-02-22T04:46:37;50.90;;;20.75;;
31836;SDS011;18401;49.344;6.240;2023-02-22T04:49:03;51.05;;;20.00;;
31836;SDS011;18401;49.344;6.240;2023-02-22T04:51:28;47.60;;;19.90;;
31836;SDS011;18401;49.344;6.240;2023-02-22T04:53:54;43.03;;;19.20;;
31836;SDS011;18401;49.344;6.240;2023-02-22T04:56:21;50.97;;;20.00;;
31836;SDS011;18401;49.344;6.240;2023-02-22T04:58:47;44.60;;;18.98;;
31836;SDS011;18401;49.344;6.240;2023-02-22T05:01:13;38.00;;;17.63;;
31836;SDS011;18401;49.344;6.240;2023-02-22T05:03:40;42.15;;;17.52;;
31836;SDS011;18401;49.344;6.240;2023-02-22T05:06:06;34.80;;;17.35;;
31836;SDS011;18401;49.344;6.240;2023-02-22T05:08:32;36.83;;;16.52;;
31836;SDS011;18401;49.344;6.240;2023-02-22T05:10:58;36.65;;;16.00;;
31836;SDS011;18401;49.344;6.240;2023-02-22T05:13:24;39.10;;;16.63;;
31836;SDS011;18401;49.344;6.240;2023-02-22T05:15:50;33.67;;;16.60;;
31836;SDS011;18401;49.344;6.240;2023-02-22T05:18:15;37.88;;;15.05;;
31836;SDS011;18401;49.344;6.240;2023-02-22T05:20:41;37.33;;;16.17;;
31836;SDS011;18401;49.344;6.240;2023-02-22T05:23:07;38.92;;;17.20;;
31836;SDS011;18401;49.344;6.240;2023-02-22T05:25:32;45.85;;;19.20;;
31836;SDS011;18401;49.344;6.240;2023-02-22T05:27:59;40.83;;;19.15;;
31836;SDS011;18401;49.344;6.240;2023-02-22T05:30:32;39.67;;;18.13;;
31836;SDS011;18401;49.344;6.240;2023-02-22T05:32:59;46.75;;;19.23;;
31836;SDS011;18401;49.344;6.240;2023-02-22T05:35:26;39.25;;;18.70;;
31836;SDS011;18401;49.344;6.240;2023-02-22T05:37:53;39.53;;;18.17;;
31836;SDS011;18401;49.344;6.240;2023-02-22T05:40:20;43.75;;;19.30;;
31836;SDS011;18401;49.344;6.240;2023-02-22T05:42:47;46.65;;;20.17;;
31836;SDS011;18401;49.344;6.240;2023-02-22T05:45:14;50.53;;;21.15;;
31836;SDS011;18401;49.344;6.240;2023-02-22T05:47:41;48.17;;;20.45;;
31836;SDS011;18401;49.344;6.240;2023-02-22T05:50:07;42.75;;;19.27;;
31836;SDS011;18401;49.344;6.240;2023-02-22T05:52:33;39.40;;;17.92;;
31836;SDS011;18401;49.344;6.240;2023-02-22T05:54:59;45.95;;;17.77;;
31836;SDS011;18401;49.344;6.240;2023-02-22T05:57:24;45.45;;;18.77;;
31836;SDS011;18401;49.344;6.240;2023-02-22T05:59:50;44.58;;;20.08;;
31836;SDS011;18401;49.344;6.240;2023-02-22T06:02:16;40.55;;;18.58;;
31836;SDS011;18401;49.344;6.240;2023-02-22T06:04:45;42.08;;;18.75;;
31836;SDS011;18401;49.344;6.240;2023-02-22T06:07:11;36.72;;;15.80;;
31836;SDS011;18401;49.344;6.240;2023-02-22T06:09:38;42.25;;;17.42;;
31836;SDS011;18401;49.344;6.240;2023-02-22T06:12:04;37.13;;;15.27;;
31836;SDS011;18401;49.344;6.240;2023-02-22T06:14:30;31.70;;;14.60;;
31836;SDS011;18401;49.344;6.240;2023-02-22T06:16:56;36.58;;;15.95;;
31836;SDS011;18401;49.344;6.240;2023-02-22T06:19:22;34.60;;;15.27;;
31836;SDS011;18401;49.344;6.240;2023-02-22T06:21:49;34.15;;;15.25;;
31836;SDS011;18401;49.344;6.240;2023-02-22T06:24:16;37.90;;;16.70;;
31836;SDS011;18401;49.344;6.240;2023-02-22T06:26:42;37.80;;;16.85;;
31836;SDS011;18401;49.344;6.240;2023-02-22T06:29:07;33.78;;;15.90;;
31836;SDS011;18401;49.344;6.240;2023-02-22T06:31:33;31.85;;;15.48;;
31836;SDS011;18401;49.344;6.240;2023-02-22T06:33:59;41.80;;;18.27;;
31836;SDS011;18401;49.344;6.240;2023-02-22T06:36:25;37.38;;;17.30;;
31836;SDS011;18401;49.344;6.240;2023-02-22T06:38:50;43.90;;;17.65;;
31836;SDS011;18401;49.344;6.240;2023-02-22T06:41:16;49.20;;;17.95;;
31836;SDS011;18401;49.344;6.240;2023-02-22T06:43:42;39.17;;;17.90;;
31836;SDS011;18401;49.344;6.240;2023-02-22T06:46:11;37.15;;;16.67;;
31836;SDS011;18401;49.344;6.240;2023-02-22T06:48:37;41.08;;;17.85;;
31836;SDS011;18401;49.344;6.240;2023-02-22T06:51:04;43.05;;;18.88;;
31836;SDS011;18401;49.344;6.240;2023-02-22T06:53:32;34.65;;;17.02;;
31836;SDS011;18401;49.344;6.240;2023-02-22T06:55:58;41.85;;;18.88;;
31836;SDS011;18401;49.344;6.240;2023-02-22T06:58:24;39.60;;;16.63;;
31836;SDS011;18401;49.344;6.240;2023-02-22T07:00:51;37.35;;;17.33;;
31836;SDS011;18401;49.344;6.240;2023-02-22T07:03:17;42.80;;;19.90;;
31836;SDS011;18401;49.344;6.240;2023-02-22T07:05:42;38.97;;;18.88;;
31836;SDS011;18401;49.344;6.240;2023-02-22T07:08:09;37.05;;;18.98;;
31836;SDS011;18401;49.344;6.240;2023-02-22T07:10:36;49.33;;;19.48;;
31836;SDS011;18401;49.344;6.240;2023-02-22T07:13:02;43.53;;;19.27;;
31836;SDS011;18401;49.344;6.240;2023-02-22T07:15:30;42.47;;;19.60;;
31836;SDS011;18401;49.344;6.240;2023-02-22T07:17:56;45.13;;;19.60;;
31836;SDS011;18401;49.344;6.240;2023-02-22T07:20:23;52.60;;;24.17;;
31836;SDS011;18401;49.344;6.240;2023-02-22T07:22:50;54.95;;;23.25;;
31836;SDS011;18401;49.344;6.240;2023-02-22T07:25:16;40.55;;;20.48;;
31836;SDS011;18401;49.344;6.240;2023-02-22T07:27:42;54.08;;;22.17;;
31836;SDS011;18401;49.344;6.240;2023-02-22T07:30:19;52.92;;;22.33;;
31836;SDS011;18401;49.344;6.240;2023-02-22T07:32:49;45.17;;;21.23;;
31836;SDS011;18401;49.344;6.240;2023-02-22T07:35:35;48.92;;;23.38;;
31836;SDS011;18401;49.344;6.240;2023-02-22T07:38:08;45.75;;;20.63;;
31836;SDS011;18401;49.344;6.240;2023-02-22T07:40:34;48.45;;;20.85;;
31836;SDS011;18401;49.344;6.240;2023-02-22T07:43:02;40.20;;;19.48;;
31836;SDS011;18401;49.344;6.240;2023-02-22T07:45:38;45.90;;;19.27;;
31836;SDS011;18401;49.344;6.240;2023-02-22T07:48:04;45.47;;;21.85;;
31836;SDS011;18401;49.344;6.240;2023-02-22T07:50:31;47.03;;;20.50;;
31836;SDS011;18401;49.344;6.240;2023-02-22T07:53:00;46.22;;;19.08;;
31836;SDS011;18401;49.344;6.240;2023-02-22T07:55:27;41.35;;;18.35;;
31836;SDS011;18401;49.344;6.240;2023-02-22T07:57:56;43.53;;;19.70;;
31836;SDS011;18401;49.344;6.240;2023-02-22T08:00:29;46.47;;;20.35;;
31836;SDS011;18401;49.344;6.240;2023-02-22T08:02:57;46.08;;;18.75;;
31836;SDS011;18401;49.344;6.240;2023-02-22T08:05:25;46.20;;;20.85;;
31836;SDS011;18401;49.344;6.240;2023-02-22T08:07:51;46.10;;;21.42;;
31836;SDS011;18401;49.344;6.240;2023-02-22T08:10:17;49.22;;;23.70;;
31836;SDS011;18401;49.344;6.240;2023-02-22T08:12:44;50.35;;;23.60;;
31836;SDS011;18401;49.344;6.240;2023-02-22T08:15:17;57.50;;;24.45;;
31836;SDS011;18401;49.344;6.240;2023-02-22T08:17:55;51.67;;;23.88;;
31836;SDS011;18401;49.344;6.240;2023-02-22T08:20:21;52.55;;;23.10;;
31836;SDS011;18401;49.344;6.240;2023-02-22T08:22:48;50.17;;;22.80;;
31836;SDS011;18401;49.344;6.240;2023-02-22T08:25:14;47.38;;;21.73;;
31836;SDS011;18401;49.344;6.240;2023-02-22T08:27:41;46.05;;;21.92;;
31836;SDS011;18401;49.344;6.240;2023-02-22T08:30:09;41.45;;;21.27;;
31836;SDS011;18401;49.344;6.240;2023-02-22T08:32:39;41.08;;;20.08;;
31836;SDS011;18401;49.344;6.240;2023-02-22T08:35:04;44.28;;;21.20;;
31836;SDS011;18401;49.344;6.240;2023-02-22T08:37:30;41.60;;;21.55;;
31836;SDS011;18401;49.344;6.240;2023-02-22T08:39:56;47.78;;;23.20;;
31836;SDS011;18401;49.344;6.240;2023-02-22T08:42:22;48.50;;;22.75;;
31836;SDS011;18401;49.344;6.240;2023-02-22T08:44:47;46.03;;;20.65;;
31836;SDS011;18401;49.344;6.240;2023-02-22T08:47:13;43.50;;;19.30;;
31836;SDS011;18401;49.344;6.240;2023-02-22T08:49:39;39.78;;;20.95;;
31836;SDS011;18401;49.344;6.240;2023-02-22T08:52:06;52.00;;;24.92;;
31836;SDS011;18401;49.344;6.240;2023-02-22T08:54:32;60.28;;;30.45;;
31836;SDS011;18401;49.344;6.240;2023-02-22T08:56:58;49.50;;;26.75;;
31836;SDS011;18401;49.344;6.240;2023-02-22T08:59:24;71.32;;;34.83;;
31836;SDS011;18401;49.344;6.240;2023-02-22T09:01:49;89.32;;;44.92;;
31836;SDS011;18401;49.344;6.240;2023-02-22T09:04:15;100.22;;;48.22;;
31836;SDS011;18401;49.344;6.240;2023-02-22T09:06:41;111.40;;;52.28;;
31836;SDS011;18401;49.344;6.240;2023-02-22T09:09:08;98.07;;;51.83;;
31836;SDS011;18401;49.344;6.240;2023-02-22T09:11:34;116.13;;;58.90;;
31836;SDS011;18401;49.344;6.240;2023-02-22T09:13:59;107.15;;;58.95;;
31836;SDS011;18401;49.344;6.240;2023-02-22T09:16:25;103.45;;;57.35;;
31836;SDS011;18401;49.344;6.240;2023-02-22T09:18:51;99.57;;;52.58;;
31836;SDS011;18401;49.344;6.240;2023-02-22T09:21:16;88.55;;;48.15;;
31836;SDS011;18401;49.344;6.240;2023-02-22T09:23:42;69.13;;;37.72;;
31836;SDS011;18401;49.344;6.240;2023-02-22T09:26:11;62.17;;;35.25;;
31836;SDS011;18401;49.344;6.240;2023-02-22T09:28:40;69.40;;;35.90;;
31836;SDS011;18401;49.344;6.240;2023-02-22T09:31:06;66.70;;;34.70;;
31836;SDS011;18401;49.344;6.240;2023-02-22T09:33:32;60.15;;;32.10;;
31836;SDS011;18401;49.344;6.240;2023-02-22T09:35:58;56.17;;;30.17;;
31836;SDS011;18401;49.344;6.240;2023-02-22T09:38:25;66.70;;;33.60;;
31836;SDS011;18401;49.344;6.240;2023-02-22T09:40:51;56.22;;;33.55;;
31836;SDS011;18401;49.344;6.240;2023-02-22T09:46:16;56.83;;;29.80;;
31836;SDS011;18401;49.344;6.240;2023-02-22T09:54:32;51.45;;;26.95;;
31836;SDS011;18401;49.344;6.240;2023-02-22T09:57:09;42.17;;;23.42;;
31836;SDS011;18401;49.344;6.240;2023-02-22T09:59:43;39.22;;;19.60;;
31836;SDS011;18401;49.344;6.240;2023-02-22T10:02:22;38.38;;;21.60;;
31836;SDS011;18401;49.344;6.240;2023-02-22T10:04:59;36.67;;;19.42;;
31836;SDS011;18401;49.344;6.240;2023-02-22T10:07:42;39.35;;;20.20;;
31836;SDS011;18401;49.344;6.240;2023-02-22T10:10:20;39.92;;;21.15;;
31836;SDS011;18401;49.344;6.240;2023-02-22T10:18:29;39.95;;;17.55;;
31836;SDS011;18401;49.344;6.240;2023-02-22T10:23:55;28.83;;;15.45;;
31836;SDS011;18401;49.344;6.240;2023-02-22T10:26:29;28.73;;;15.32;;
31836;SDS011;18401;49.344;6.240;2023-02-22T10:31:37;28.67;;;15.65;;
31836;SDS011;18401;49.344;6.240;2023-02-22T10:34:13;31.50;;;15.02;;
31836;SDS011;18401;49.344;6.240;2023-02-22T10:36:41;31.73;;;16.45;;
31836;SDS011;18401;49.344;6.240;2023-02-22T10:44:29;31.23;;;15.18;;
31836;SDS011;18401;49.344;6.240;2023-02-22T10:46:59;30.95;;;15.55;;
31836;SDS011;18401;49.344;6.240;2023-02-22T10:49:29;26.92;;;14.32;;
31836;SDS011;18401;49.344;6.240;2023-02-22T10:52:05;28.23;;;13.52;;
31836;SDS011;18401;49.344;6.240;2023-02-22T10:54:45;30.30;;;14.43;;
31836;SDS011;18401;49.344;6.240;2023-02-22T10:57:15;35.97;;;15.65;;
31836;SDS011;18401;49.344;6.240;2023-02-22T10:59:46;30.23;;;14.75;;
31836;SDS011;18401;49.344;6.240;2023-02-22T11:02:17;27.65;;;14.35;;
31836;SDS011;18401;49.344;6.240;2023-02-22T11:04:52;27.85;;;14.07;;
31836;SDS011;18401;49.344;6.240;2023-02-22T11:10:01;29.55;;;15.15;;
31836;SDS011;18401;49.344;6.240;2023-02-22T11:12:35;30.50;;;14.23;;
31836;SDS011;18401;49.344;6.240;2023-02-22T11:17:51;27.40;;;14.95;;
31836;SDS011;18401;49.344;6.240;2023-02-22T11:22:52;31.00;;;14.43;;
31836;SDS011;18401;49.344;6.240;2023-02-22T11:25:23;30.10;;;15.07;;
31836;SDS011;18401;49.344;6.240;2023-02-22T11:27:51;28.08;;;14.68;;
31836;SDS011;18401;49.344;6.240;2023-02-22T11:30:29;33.95;;;15.80;;
31836;SDS011;18401;49.344;6.240;2023-02-22T11:32:58;27.23;;;14.90;;
31836;SDS011;18401;49.344;6.240;2023-02-22T11:35:35;30.85;;;15.38;;
31836;SDS011;18401;49.344;6.240;2023-02-22T11:38:10;32.20;;;15.15;;
31836;SDS011;18401;49.344;6.240;2023-02-22T11:40:40;24.60;;;13.77;;
31836;SDS011;18401;49.344;6.240;2023-02-22T11:43:07;27.90;;;14.13;;
31836;SDS011;18401;49.344;6.240;2023-02-22T11:45:57;28.30;;;14.00;;
31836;SDS011;18401;49.344;6.240;2023-02-22T11:48:33;26.35;;;14.40;;
31836;SDS011;18401;49.344;6.240;2023-02-22T11:54:00;32.75;;;13.77;;
31836;SDS011;18401;49.344;6.240;2023-02-22T12:10:38;37.33;;;14.20;;
31836;SDS011;18401;49.344;6.240;2023-02-22T12:13:20;24.50;;;12.60;;
31836;SDS011;18401;49.344;6.240;2023-02-22T12:21:41;27.52;;;13.20;;
31836;SDS011;18401;49.344;6.240;2023-02-22T12:24:17;28.45;;;13.45;;
31836;SDS011;18401;49.344;6.240;2023-02-22T12:26:49;27.33;;;12.88;;
31836;SDS011;18401;49.344;6.240;2023-02-22T12:34:57;26.88;;;14.05;;
31836;SDS011;18401;49.344;6.240;2023-02-22T12:37:34;25.33;;;14.05;;
31836;SDS011;18401;49.344;6.240;2023-02-22T12:48:30;28.38;;;14.35;;
31836;SDS011;18401;49.344;6.240;2023-02-22T12:51:33;32.58;;;14.05;;
31836;SDS011;18401;49.344;6.240;2023-02-22T12:54:05;25.67;;;13.93;;
31836;SDS011;18401;49.344;6.240;2023-02-22T12:56:56;27.08;;;13.60;;
31836;SDS011;18401;49.344;6.240;2023-02-22T13:04:39;28.05;;;14.32;;
31836;SDS011;18401;49.344;6.240;2023-02-22T13:12:46;27.73;;;14.93;;
31836;SDS011;18401;49.344;6.240;2023-02-22T13:29:17;32.33;;;15.52;;
31836;SDS011;18401;49.344;6.240;2023-02-22T13:40:03;29.60;;;14.77;;
31836;SDS011;18401;49.344;6.240;2023-02-22T13:48:46;23.50;;;13.85;;
31836;SDS011;18401;49.344;6.240;2023-02-22T13:56:44;28.20;;;13.35;;
31836;SDS011;18401;49.344;6.240;2023-02-22T13:59:22;26.90;;;13.13;;
31836;SDS011;18401;49.344;6.240;2023-02-22T14:01:57;25.23;;;13.40;;
31836;SDS011;18401;49.344;6.240;2023-02-22T14:06:53;24.20;;;13.50;;
31836;SDS011;18401;49.344;6.240;2023-02-22T14:17:37;22.25;;;12.57;;
31836;SDS011;18401;49.344;6.240;2023-02-22T14:22:42;24.80;;;12.40;;
31836;SDS011;18401;49.344;6.240;2023-02-22T14:27:55;27.25;;;13.20;;
31836;SDS011;18401;49.344;6.240;2023-02-22T14:30:25;25.70;;;12.13;;
31836;SDS011;18401;49.344;6.240;2023-02-22T14:32:53;22.63;;;11.98;;
31836;SDS011;18401;49.344;6.240;2023-02-22T14:35:19;24.00;;;12.45;;
31836;SDS011;18401;49.344;6.240;2023-02-22T14:37:53;29.45;;;12.57;;
31836;SDS011;18401;49.344;6.240;2023-02-22T14:43:05;21.88;;;12.25;;
31836;SDS011;18401;49.344;6.240;2023-02-22T14:45:53;24.90;;;12.32;;
31836;SDS011;18401;49.344;6.240;2023-02-22T14:48:26;24.00;;;12.30;;
31836;SDS011;18401;49.344;6.240;2023-02-22T14:51:14;22.35;;;11.95;;
31836;SDS011;18401;49.344;6.240;2023-02-22T14:53:50;22.48;;;11.55;;
31836;SDS011;18401;49.344;6.240;2023-02-22T15:01:30;27.13;;;12.77;;
31836;SDS011;18401;49.344;6.240;2023-02-22T15:04:48;25.55;;;12.77;;
31836;SDS011;18401;49.344;6.240;2023-02-22T15:09:20;27.45;;;12.45;;
31836;SDS011;18401;49.344;6.240;2023-02-22T15:11:54;27.85;;;12.77;;
31836;SDS011;18401;49.344;6.240;2023-02-22T15:14:42;28.83;;;12.73;;
31836;SDS011;18401;49.344;6.240;2023-02-22T15:17:16;27.65;;;12.75;;
31836;SDS011;18401;49.344;6.240;2023-02-22T15:19:48;29.80;;;12.65;;
31836;SDS011;18401;49.344;6.240;2023-02-22T15:22:22;35.67;;;13.68;;
31836;SDS011;18401;49.344;6.240;2023-02-22T15:24:59;32.97;;;14.77;;
31836;SDS011;18401;49.344;6.240;2023-02-22T15:27:29;32.15;;;14.93;;
31836;SDS011;18401;49.344;6.240;2023-02-22T15:30:02;26.35;;;13.55;;
31836;SDS011;18401;49.344;6.240;2023-02-22T15:32:37;32.30;;;13.88;;
31836;SDS011;18401;49.344;6.240;2023-02-22T15:35:11;36.17;;;13.43;;
31836;SDS011;18401;49.344;6.240;2023-02-22T15:37:37;29.33;;;13.52;;
31836;SDS011;18401;49.344;6.240;2023-02-22T15:40:04;32.72;;;13.55;;
31836;SDS011;18401;49.344;6.240;2023-02-22T15:42:41;35.63;;;14.77;;
31836;SDS011;18401;49.344;6.240;2023-02-22T15:45:12;32.90;;;14.32;;
31836;SDS011;18401;49.344;6.240;2023-02-22T15:47:44;27.30;;;14.55;;
31836;SDS011;18401;49.344;6.240;2023-02-22T15:50:18;39.80;;;15.13;;
31836;SDS011;18401;49.344;6.240;2023-02-22T15:57:55;34.83;;;15.25;;
31836;SDS011;18401;49.344;6.240;2023-02-22T16:00:26;34.33;;;15.52;;
31836;SDS011;18401;49.344;6.240;2023-02-22T16:03:01;29.35;;;15.80;;
31836;SDS011;18401;49.344;6.240;2023-02-22T16:05:48;31.50;;;14.65;;
31836;SDS011;18401;49.344;6.240;2023-02-22T16:08:18;32.42;;;14.82;;
31836;SDS011;18401;49.344;6.240;2023-02-22T16:13:37;29.75;;;14.98;;
31836;SDS011;18401;49.344;6.240;2023-02-22T16:16:19;31.10;;;14.35;;
31836;SDS011;18401;49.344;6.240;2023-02-22T16:18:47;33.17;;;14.73;;
31836;SDS011;18401;49.344;6.240;2023-02-22T16:21:14;34.95;;;14.25;;
31836;SDS011;18401;49.344;6.240;2023-02-22T16:23:43;31.00;;;14.82;;
31836;SDS011;18401;49.344;6.240;2023-02-22T16:31:38;27.77;;;13.77;;
31836;SDS011;18401;49.344;6.240;2023-02-22T16:34:05;27.92;;;14.65;;
31836;SDS011;18401;49.344;6.240;2023-02-22T16:36:38;30.75;;;14.18;;
31836;SDS011;18401;49.344;6.240;2023-02-22T16:39:06;30.35;;;14.30;;
31836;SDS011;18401;49.344;6.240;2023-02-22T16:41:36;27.85;;;12.95;;
31836;SDS011;18401;49.344;6.240;2023-02-22T16:44:02;30.98;;;13.48;;
31836;SDS011;18401;49.344;6.240;2023-02-22T16:46:27;36.58;;;14.60;;
31836;SDS011;18401;49.344;6.240;2023-02-22T16:48:53;31.42;;;14.05;;
31836;SDS011;18401;49.344;6.240;2023-02-22T16:51:23;28.48;;;14.50;;
31836;SDS011;18401;49.344;6.240;2023-02-22T16:53:51;28.85;;;14.65;;
31836;SDS011;18401;49.344;6.240;2023-02-22T16:56:19;31.38;;;14.23;;
31836;SDS011;18401;49.344;6.240;2023-02-22T16:58:49;33.55;;;14.55;;
31836;SDS011;18401;49.344;6.240;2023-02-22T17:01:16;34.30;;;15.30;;
31836;SDS011;18401;49.344;6.240;2023-02-22T17:03:43;32.95;;;15.68;;
31836;SDS011;18401;49.344;6.240;2023-02-22T17:06:09;29.67;;;14.25;;
31836;SDS011;18401;49.344;6.240;2023-02-22T17:08:36;36.38;;;15.60;;
31836;SDS011;18401;49.344;6.240;2023-02-22T17:11:02;29.17;;;15.52;;
31836;SDS011;18401;49.344;6.240;2023-02-22T17:13:29;30.88;;;15.02;;
31836;SDS011;18401;49.344;6.240;2023-02-22T17:15:55;31.17;;;14.57;;
31836;SDS011;18401;49.344;6.240;2023-02-22T17:18:21;29.38;;;14.50;;
31836;SDS011;18401;49.344;6.240;2023-02-22T17:20:52;33.03;;;15.40;;
31836;SDS011;18401;49.344;6.240;2023-02-22T17:23:21;35.63;;;15.05;;
31836;SDS011;18401;49.344;6.240;2023-02-22T17:25:52;35.72;;;16.90;;
31836;SDS011;18401;49.344;6.240;2023-02-22T17:28:20;34.58;;;14.65;;
31836;SDS011;18401;49.344;6.240;2023-02-22T17:30:47;32.72;;;16.02;;
31836;SDS011;18401;49.344;6.240;2023-02-22T17:33:14;36.95;;;16.33;;
31836;SDS011;18401;49.344;6.240;2023-02-22T17:35:41;35.30;;;16.45;;
31836;SDS011;18401;49.344;6.240;2023-02-22T17:38:08;38.60;;;16.63;;
31836;SDS011;18401;49.344;6.240;2023-02-22T17:40:34;32.55;;;14.70;;